地図

経路データ

SID SEASON NUMBER BASIN SUBBASIN NAME ISO_TIME NATURE LAT LON WMO_WIND WMO_PRES WMO_AGENCY TRACK_TYPE DIST2LAND LANDFALL IFLAG USA_AGENCY USA_ATCF_ID USA_LAT USA_LON USA_RECORD USA_STATUS USA_WIND USA_PRES USA_SSHS USA_R34_NE USA_R34_SE USA_R34_SW USA_R34_NW USA_R50_NE USA_R50_SE USA_R50_SW USA_R50_NW USA_R64_NE USA_R64_SE USA_R64_SW USA_R64_NW USA_POCI USA_ROCI USA_RMW USA_EYE TOKYO_LAT TOKYO_LON TOKYO_GRADE TOKYO_WIND TOKYO_PRES TOKYO_R50_DIR TOKYO_R50_LONG TOKYO_R50_SHORT TOKYO_R30_DIR TOKYO_R30_LONG TOKYO_R30_SHORT TOKYO_LAND CMA_LAT CMA_LON CMA_CAT CMA_WIND CMA_PRES HKO_LAT HKO_LON HKO_CAT HKO_WIND HKO_PRES NEWDELHI_LAT NEWDELHI_LON NEWDELHI_GRADE NEWDELHI_WIND NEWDELHI_PRES NEWDELHI_CI NEWDELHI_DP NEWDELHI_POCI REUNION_LAT REUNION_LON REUNION_TYPE REUNION_WIND REUNION_PRES REUNION_TNUM REUNION_CI REUNION_RMW REUNION_R34_NE REUNION_R34_SE REUNION_R34_SW REUNION_R34_NW REUNION_R50_NE REUNION_R50_SE REUNION_R50_SW REUNION_R50_NW REUNION_R64_NE REUNION_R64_SE REUNION_R64_SW REUNION_R64_NW BOM_LAT BOM_LON BOM_TYPE BOM_WIND BOM_PRES BOM_TNUM BOM_CI BOM_RMW BOM_R34_NE BOM_R34_SE BOM_R34_SW BOM_R34_NW BOM_R50_NE BOM_R50_SE BOM_R50_SW BOM_R50_NW BOM_R64_NE BOM_R64_SE BOM_R64_SW BOM_R64_NW BOM_ROCI BOM_POCI BOM_EYE BOM_POS_METHOD BOM_PRES_METHOD NADI_LAT NADI_LON NADI_CAT NADI_WIND NADI_PRES WELLINGTON_LAT WELLINGTON_LON WELLINGTON_WIND WELLINGTON_PRES DS824_LAT DS824_LON DS824_STAGE DS824_WIND DS824_PRES TD9636_LAT TD9636_LON TD9636_STAGE TD9636_WIND TD9636_PRES TD9635_LAT TD9635_LON TD9635_WIND TD9635_PRES TD9635_ROCI NEUMANN_LAT NEUMANN_LON NEUMANN_CLASS NEUMANN_WIND NEUMANN_PRES MLC_LAT MLC_LON MLC_CLASS MLC_WIND MLC_PRES USA_GUST BOM_GUST BOM_GUST_PER REUNION_GUST REUNION_GUST_PER USA_SEAHGT USA_SEARAD_NE USA_SEARAD_SE USA_SEARAD_SW USA_SEARAD_NW STORM_SPEED STORM_DIR
1944346S15053 1945 85 SI MM NOT_NAMED 1944-12-11 00:00:00 TS -14.9000 52.6000 main 228 226 _________O____ -1 -14.9000 52.6000 TC 25 7 156
1944346S15053 1945 85 SI MM NOT_NAMED 1944-12-11 03:00:00 TS -15.2100 52.7499 main 236 236 _________P____ -1 -15.2100 52.7499 TC 25 7 154
1944346S15053 1945 85 SI MM NOT_NAMED 1944-12-11 06:00:00 TS -15.5000 52.9000 main 257 257 _________O____ -1 -15.5000 52.9000 TC 25 6 152
1944346S15053 1945 85 SI MM NOT_NAMED 1944-12-11 09:00:00 TS -15.7575 53.0501 main 282 282 _________P____ -1 -15.7575 53.0501 TC 25 6 150
1944346S15053 1945 85 SI MM NOT_NAMED 1944-12-11 12:00:00 TS -16.0000 53.2000 main 296 296 _________O____ -1 -16.0000 53.2000 TC 25 6 150
1944346S15053 1945 85 SI MM NOT_NAMED 1944-12-11 15:00:00 TS -16.2500 53.3500 main 323 323 _________P____ -1 -16.2500 53.3500 TC 25 6 150
1944346S15053 1945 85 SI MM NOT_NAMED 1944-12-11 18:00:00 TS -16.5000 53.5000 main 343 343 _________O____ -1 -16.5000 53.5000 TC 25 6 150
1944346S15053 1945 85 SI MM NOT_NAMED 1944-12-11 21:00:00 TS -16.7425 53.6501 main 371 371 _________P____ -1 -16.7425 53.6501 TC 25 6 150
1944346S15053 1945 85 SI MM NOT_NAMED 1944-12-12 00:00:00 TS -17.0000 53.8000 main 395 395 _________O____ -1 -17.0000 53.8000 TC 25 6 152
1944346S15053 1945 85 SI MM NOT_NAMED 1944-12-12 03:00:00 TS -17.2925 53.9575 main 428 400 _________P____ -1 -17.2925 53.9575 TC 25 7 155
1944346S15053 1945 85 SI MM NOT_NAMED 1944-12-12 06:00:00 TS -17.6000 54.1000 main 400 365 _________O____ -1 -17.6000 54.1000 TC 25 7 159
1944346S15053 1945 85 SI MM NOT_NAMED 1944-12-12 09:00:00 TS -17.9150 54.2075 main 365 330 _________P____ -1 -17.9150 54.2075 TC 25 6 162
1944346S15053 1945 85 SI MM NOT_NAMED 1944-12-12 12:00:00 TS -18.2000 54.3000 main 330 305 _________O____ -1 -18.2000 54.3000 TC 25 5 160
1944346S15053 1945 85 SI MM NOT_NAMED 1944-12-12 15:00:00 TS -18.4075 54.4001 main 305 281 _________P____ -1 -18.4075 54.4001 TC 25 4 155
1944346S15053 1945 85 SI MM NOT_NAMED 1944-12-12 18:00:00 TS -18.6000 54.5000 main 281 256 _________O____ -1 -18.6000 54.5000 TC 25 5 156
1944346S15053 1945 85 SI MM NOT_NAMED 1944-12-12 21:00:00 TS -18.8275 54.5926 main 256 221 _________P____ -1 -18.8275 54.5926 TC 25 5 159
1944346S15053 1945 85 SI MM NOT_NAMED 1944-12-13 00:00:00 TS -19.1000 54.7000 main 221 186 _________O____ -1 -19.1000 54.7000 TC 25 7 158
1944346S15053 1945 85 SI MM NOT_NAMED 1944-12-13 03:00:00 TS -19.4350 54.8499 main 186 137 _________P____ -1 -19.4350 54.8499 TC 25 8 158
1944346S15053 1945 85 SI MM NOT_NAMED 1944-12-13 06:00:00 TS -19.8000 55.0000 main 137 102 _________O____ -1 -19.8000 55.0000 TC 25 8 161
1944346S15053 1945 85 SI MM NOT_NAMED 1944-12-13 09:00:00 TS -20.1500 55.1076 main 102 56 _________P____ -1 -20.1500 55.1076 TC 25 7 165
1944346S15053 1945 85 SI MM NOT_NAMED 1944-12-13 12:00:00 TS -20.5000 55.2000 main 56 22 _________O____ -1 -20.5000 55.2000 TC 25 7 165
1944346S15053 1945 85 SI MM NOT_NAMED 1944-12-13 15:00:00 TS -20.8500 55.3000 main 22 0 _________P____ -1 -20.8500 55.3000 TC 25 7 165
1944346S15053 1945 85 SI MM NOT_NAMED 1944-12-13 18:00:00 TS -21.2000 55.4000 main 0 0 _________O____ -1 -21.2000 55.4000 TC 25 7 165
1944346S15053 1945 85 SI MM NOT_NAMED 1944-12-13 21:00:00 TS -21.5500 55.4999 main 24 24 _________P____ -1 -21.5500 55.4999 TC 25 7 165
1944346S15053 1945 85 SI MM NOT_NAMED 1944-12-14 00:00:00 TS -21.9000 55.6000 main 55 _________O____ -1 -21.9000 55.6000 TC 25 7 165

IBTrACS Databaseについて

本データベースは、米国NOAAが公開する1842年以降の世界の熱帯低気圧のベストトラックデータアーカイブInternational Best Track Archive for Climate Stewardship (IBTrACS)を、ウェブで閲覧しやすい形式に変換したものです。

最終更新日:2021-12-08